sensor_id;sensor_type;location;lat;lon;timestamp;P1;durP1;ratioP1;P2;durP2;ratioP2
22060;SDS011;11194;48.092;-1.382;2022-12-10T00:01:24;113.85;;;55.10;;
22060;SDS011;11194;48.092;-1.382;2022-12-10T00:03:51;104.63;;;54.17;;
22060;SDS011;11194;48.092;-1.382;2022-12-10T00:06:18;88.50;;;49.92;;
22060;SDS011;11194;48.092;-1.382;2022-12-10T00:08:45;88.68;;;49.05;;
22060;SDS011;11194;48.092;-1.382;2022-12-10T00:11:12;95.57;;;47.55;;
22060;SDS011;11194;48.092;-1.382;2022-12-10T00:13:38;88.25;;;46.17;;
22060;SDS011;11194;48.092;-1.382;2022-12-10T00:16:05;79.20;;;43.63;;
22060;SDS011;11194;48.092;-1.382;2022-12-10T00:18:31;60.28;;;36.38;;
22060;SDS011;11194;48.092;-1.382;2022-12-10T00:20:58;66.38;;;35.92;;
22060;SDS011;11194;48.092;-1.382;2022-12-10T00:23:24;63.65;;;36.78;;
22060;SDS011;11194;48.092;-1.382;2022-12-10T00:25:50;69.13;;;37.45;;
22060;SDS011;11194;48.092;-1.382;2022-12-10T00:28:16;65.15;;;36.40;;
22060;SDS011;11194;48.092;-1.382;2022-12-10T00:30:42;78.05;;;39.33;;
22060;SDS011;11194;48.092;-1.382;2022-12-10T00:33:08;73.15;;;40.60;;
22060;SDS011;11194;48.092;-1.382;2022-12-10T00:35:35;81.82;;;43.42;;
22060;SDS011;11194;48.092;-1.382;2022-12-10T00:38:01;80.18;;;42.95;;
22060;SDS011;11194;48.092;-1.382;2022-12-10T00:40:28;85.68;;;44.45;;
22060;SDS011;11194;48.092;-1.382;2022-12-10T00:42:54;79.05;;;42.42;;
22060;SDS011;11194;48.092;-1.382;2022-12-10T00:45:20;77.90;;;42.42;;
22060;SDS011;11194;48.092;-1.382;2022-12-10T00:47:46;77.78;;;43.17;;
22060;SDS011;11194;48.092;-1.382;2022-12-10T00:50:12;87.35;;;43.30;;
22060;SDS011;11194;48.092;-1.382;2022-12-10T00:52:38;76.00;;;42.17;;
22060;SDS011;11194;48.092;-1.382;2022-12-10T00:55:04;78.00;;;40.53;;
22060;SDS011;11194;48.092;-1.382;2022-12-10T00:57:30;76.95;;;40.75;;
22060;SDS011;11194;48.092;-1.382;2022-12-10T00:59:57;73.22;;;38.60;;
22060;SDS011;11194;48.092;-1.382;2022-12-10T01:02:23;75.45;;;40.90;;
22060;SDS011;11194;48.092;-1.382;2022-12-10T01:04:53;79.20;;;41.03;;
22060;SDS011;11194;48.092;-1.382;2022-12-10T01:07:19;79.80;;;41.20;;
22060;SDS011;11194;48.092;-1.382;2022-12-10T01:09:45;73.72;;;41.38;;
22060;SDS011;11194;48.092;-1.382;2022-12-10T01:12:12;79.85;;;43.13;;
22060;SDS011;11194;48.092;-1.382;2022-12-10T01:14:38;81.18;;;42.83;;
22060;SDS011;11194;48.092;-1.382;2022-12-10T01:17:05;78.55;;;41.53;;
22060;SDS011;11194;48.092;-1.382;2022-12-10T01:19:33;79.68;;;42.22;;
22060;SDS011;11194;48.092;-1.382;2022-12-10T01:21:59;78.07;;;43.22;;
22060;SDS011;11194;48.092;-1.382;2022-12-10T01:24:26;82.13;;;44.05;;
22060;SDS011;11194;48.092;-1.382;2022-12-10T01:26:53;87.43;;;43.92;;
22060;SDS011;11194;48.092;-1.382;2022-12-10T01:29:22;78.38;;;42.83;;
22060;SDS011;11194;48.092;-1.382;2022-12-10T01:31:52;88.75;;;44.33;;
22060;SDS011;11194;48.092;-1.382;2022-12-10T01:34:18;88.88;;;45.65;;
22060;SDS011;11194;48.092;-1.382;2022-12-10T01:36:44;86.22;;;45.10;;
22060;SDS011;11194;48.092;-1.382;2022-12-10T01:39:13;86.00;;;46.80;;
22060;SDS011;11194;48.092;-1.382;2022-12-10T01:41:40;81.55;;;45.45;;
22060;SDS011;11194;48.092;-1.382;2022-12-10T01:46:34;77.15;;;40.40;;
22060;SDS011;11194;48.092;-1.382;2022-12-10T01:49:01;78.75;;;41.92;;
22060;SDS011;11194;48.092;-1.382;2022-12-10T01:51:28;74.72;;;42.13;;
22060;SDS011;11194;48.092;-1.382;2022-12-10T01:53:55;79.43;;;43.63;;
22060;SDS011;11194;48.092;-1.382;2022-12-10T01:56:21;77.63;;;41.92;;
22060;SDS011;11194;48.092;-1.382;2022-12-10T01:58:48;73.80;;;41.78;;
22060;SDS011;11194;48.092;-1.382;2022-12-10T02:01:20;72.07;;;40.17;;
22060;SDS011;11194;48.092;-1.382;2022-12-10T02:08:52;71.88;;;38.88;;
22060;SDS011;11194;48.092;-1.382;2022-12-10T02:11:29;76.13;;;40.33;;
22060;SDS011;11194;48.092;-1.382;2022-12-10T02:16:46;73.18;;;39.97;;
22060;SDS011;11194;48.092;-1.382;2022-12-10T02:21:37;72.40;;;38.03;;
22060;SDS011;11194;48.092;-1.382;2022-12-10T02:24:05;76.78;;;39.92;;
22060;SDS011;11194;48.092;-1.382;2022-12-10T02:29:12;69.78;;;39.05;;
22060;SDS011;11194;48.092;-1.382;2022-12-10T05:01:01;89.95;;;43.20;;
22060;SDS011;11194;48.092;-1.382;2022-12-10T05:03:27;84.72;;;41.05;;
22060;SDS011;11194;48.092;-1.382;2022-12-10T05:05:53;95.18;;;43.75;;
22060;SDS011;11194;48.092;-1.382;2022-12-10T05:08:19;92.60;;;44.60;;
22060;SDS011;11194;48.092;-1.382;2022-12-10T05:10:45;107.38;;;47.13;;
22060;SDS011;11194;48.092;-1.382;2022-12-10T05:13:11;104.25;;;47.63;;
22060;SDS011;11194;48.092;-1.382;2022-12-10T05:15:38;120.55;;;49.35;;
22060;SDS011;11194;48.092;-1.382;2022-12-10T05:18:04;116.00;;;50.08;;
22060;SDS011;11194;48.092;-1.382;2022-12-10T05:20:30;118.68;;;48.05;;
22060;SDS011;11194;48.092;-1.382;2022-12-10T05:22:56;125.38;;;46.40;;
22060;SDS011;11194;48.092;-1.382;2022-12-10T05:25:41;149.45;;;47.35;;
22060;SDS011;11194;48.092;-1.382;2022-12-10T05:28:20;147.77;;;46.42;;
22060;SDS011;11194;48.092;-1.382;2022-12-10T05:30:46;142.57;;;45.33;;
22060;SDS011;11194;48.092;-1.382;2022-12-10T05:33:12;86.18;;;41.95;;
22060;SDS011;11194;48.092;-1.382;2022-12-10T05:35:38;91.13;;;41.60;;
22060;SDS011;11194;48.092;-1.382;2022-12-10T05:38:04;102.10;;;43.35;;
22060;SDS011;11194;48.092;-1.382;2022-12-10T05:40:37;110.43;;;47.55;;
22060;SDS011;11194;48.092;-1.382;2022-12-10T05:43:03;91.45;;;44.17;;
22060;SDS011;11194;48.092;-1.382;2022-12-10T05:45:31;79.22;;;40.28;;
22060;SDS011;11194;48.092;-1.382;2022-12-10T05:47:57;72.22;;;39.47;;
22060;SDS011;11194;48.092;-1.382;2022-12-10T05:50:24;68.30;;;37.22;;
22060;SDS011;11194;48.092;-1.382;2022-12-10T05:52:50;72.05;;;38.20;;
22060;SDS011;11194;48.092;-1.382;2022-12-10T05:55:16;77.63;;;39.55;;
22060;SDS011;11194;48.092;-1.382;2022-12-10T05:57:43;76.75;;;39.72;;
22060;SDS011;11194;48.092;-1.382;2022-12-10T06:00:09;71.13;;;39.33;;
22060;SDS011;11194;48.092;-1.382;2022-12-10T06:02:35;73.88;;;37.47;;
22060;SDS011;11194;48.092;-1.382;2022-12-10T06:05:02;65.50;;;35.30;;
22060;SDS011;11194;48.092;-1.382;2022-12-10T06:07:29;62.00;;;33.17;;
22060;SDS011;11194;48.092;-1.382;2022-12-10T06:09:55;62.55;;;33.97;;
22060;SDS011;11194;48.092;-1.382;2022-12-10T06:12:21;64.10;;;33.58;;
22060;SDS011;11194;48.092;-1.382;2022-12-10T06:14:48;74.78;;;36.95;;
22060;SDS011;11194;48.092;-1.382;2022-12-10T06:17:14;72.35;;;37.13;;
22060;SDS011;11194;48.092;-1.382;2022-12-10T06:19:40;70.35;;;37.70;;
22060;SDS011;11194;48.092;-1.382;2022-12-10T06:22:06;68.25;;;36.80;;
22060;SDS011;11194;48.092;-1.382;2022-12-10T06:24:32;66.97;;;35.90;;
22060;SDS011;11194;48.092;-1.382;2022-12-10T06:26:58;69.93;;;35.83;;
22060;SDS011;11194;48.092;-1.382;2022-12-10T06:29:24;65.15;;;33.95;;
22060;SDS011;11194;48.092;-1.382;2022-12-10T06:31:50;69.72;;;36.58;;
22060;SDS011;11194;48.092;-1.382;2022-12-10T06:34:16;65.13;;;34.33;;
22060;SDS011;11194;48.092;-1.382;2022-12-10T06:36:42;71.30;;;36.10;;
22060;SDS011;11194;48.092;-1.382;2022-12-10T06:39:08;67.78;;;34.72;;
22060;SDS011;11194;48.092;-1.382;2022-12-10T06:41:34;73.45;;;37.28;;
22060;SDS011;11194;48.092;-1.382;2022-12-10T06:44:01;69.88;;;37.33;;
22060;SDS011;11194;48.092;-1.382;2022-12-10T06:46:27;89.60;;;40.58;;
22060;SDS011;11194;48.092;-1.382;2022-12-10T06:48:53;62.88;;;33.58;;
22060;SDS011;11194;48.092;-1.382;2022-12-10T06:51:19;58.03;;;33.38;;
22060;SDS011;11194;48.092;-1.382;2022-12-10T06:53:45;62.00;;;33.13;;
22060;SDS011;11194;48.092;-1.382;2022-12-10T06:56:13;59.78;;;31.77;;
22060;SDS011;11194;48.092;-1.382;2022-12-10T06:58:40;57.83;;;31.73;;
22060;SDS011;11194;48.092;-1.382;2022-12-10T07:03:39;58.60;;;32.15;;
22060;SDS011;11194;48.092;-1.382;2022-12-10T07:06:05;61.40;;;33.30;;
22060;SDS011;11194;48.092;-1.382;2022-12-10T07:08:32;60.15;;;33.40;;
22060;SDS011;11194;48.092;-1.382;2022-12-10T07:10:58;60.65;;;33.83;;
22060;SDS011;11194;48.092;-1.382;2022-12-10T07:13:24;63.17;;;34.78;;
22060;SDS011;11194;48.092;-1.382;2022-12-10T07:15:50;59.72;;;34.78;;
22060;SDS011;11194;48.092;-1.382;2022-12-10T07:18:17;67.05;;;33.78;;
22060;SDS011;11194;48.092;-1.382;2022-12-10T07:20:43;60.38;;;32.65;;
22060;SDS011;11194;48.092;-1.382;2022-12-10T07:23:09;59.35;;;33.90;;
22060;SDS011;11194;48.092;-1.382;2022-12-10T07:25:35;58.28;;;32.13;;
22060;SDS011;11194;48.092;-1.382;2022-12-10T07:28:02;60.55;;;33.67;;
22060;SDS011;11194;48.092;-1.382;2022-12-10T07:30:28;58.17;;;32.95;;
22060;SDS011;11194;48.092;-1.382;2022-12-10T07:32:54;60.83;;;32.70;;
22060;SDS011;11194;48.092;-1.382;2022-12-10T07:35:20;66.05;;;34.47;;
22060;SDS011;11194;48.092;-1.382;2022-12-10T07:37:46;70.88;;;37.55;;
22060;SDS011;11194;48.092;-1.382;2022-12-10T07:40:12;90.40;;;46.50;;
22060;SDS011;11194;48.092;-1.382;2022-12-10T07:42:38;84.68;;;44.40;;
22060;SDS011;11194;48.092;-1.382;2022-12-10T07:45:05;77.53;;;42.13;;
22060;SDS011;11194;48.092;-1.382;2022-12-10T07:47:31;77.85;;;41.15;;
22060;SDS011;11194;48.092;-1.382;2022-12-10T07:50:00;73.60;;;40.25;;
22060;SDS011;11194;48.092;-1.382;2022-12-10T07:52:26;73.65;;;40.15;;
22060;SDS011;11194;48.092;-1.382;2022-12-10T07:54:52;78.88;;;43.55;;
22060;SDS011;11194;48.092;-1.382;2022-12-10T07:57:18;81.60;;;43.67;;
22060;SDS011;11194;48.092;-1.382;2022-12-10T07:59:44;82.97;;;45.53;;
22060;SDS011;11194;48.092;-1.382;2022-12-10T08:02:10;97.85;;;52.10;;
22060;SDS011;11194;48.092;-1.382;2022-12-10T08:04:37;100.18;;;51.28;;
22060;SDS011;11194;48.092;-1.382;2022-12-10T08:07:03;109.45;;;52.20;;
22060;SDS011;11194;48.092;-1.382;2022-12-10T08:09:29;112.90;;;56.53;;
22060;SDS011;11194;48.092;-1.382;2022-12-10T08:11:55;108.47;;;54.13;;
22060;SDS011;11194;48.092;-1.382;2022-12-10T08:14:22;96.72;;;48.40;;
22060;SDS011;11194;48.092;-1.382;2022-12-10T08:16:48;127.78;;;61.97;;
22060;SDS011;11194;48.092;-1.382;2022-12-10T08:19:14;145.77;;;67.60;;
22060;SDS011;11194;48.092;-1.382;2022-12-10T08:21:40;184.25;;;93.82;;
22060;SDS011;11194;48.092;-1.382;2022-12-10T08:24:06;301.38;;;116.78;;
22060;SDS011;11194;48.092;-1.382;2022-12-10T08:26:32;241.10;;;104.85;;
22060;SDS011;11194;48.092;-1.382;2022-12-10T08:28:58;187.05;;;85.13;;
22060;SDS011;11194;48.092;-1.382;2022-12-10T08:31:25;148.57;;;76.75;;
22060;SDS011;11194;48.092;-1.382;2022-12-10T08:33:51;181.48;;;86.38;;
22060;SDS011;11194;48.092;-1.382;2022-12-10T08:36:18;161.55;;;76.80;;
22060;SDS011;11194;48.092;-1.382;2022-12-10T08:38:44;138.23;;;70.25;;
22060;SDS011;11194;48.092;-1.382;2022-12-10T08:41:11;161.48;;;80.25;;
22060;SDS011;11194;48.092;-1.382;2022-12-10T08:43:38;148.63;;;72.72;;
22060;SDS011;11194;48.092;-1.382;2022-12-10T08:46:04;115.28;;;62.75;;
22060;SDS011;11194;48.092;-1.382;2022-12-10T08:48:31;130.23;;;67.32;;
22060;SDS011;11194;48.092;-1.382;2022-12-10T08:50:57;126.88;;;66.43;;
22060;SDS011;11194;48.092;-1.382;2022-12-10T08:53:23;115.20;;;60.67;;
22060;SDS011;11194;48.092;-1.382;2022-12-10T08:55:50;125.57;;;65.68;;
22060;SDS011;11194;48.092;-1.382;2022-12-10T08:58:16;125.82;;;68.68;;
22060;SDS011;11194;48.092;-1.382;2022-12-10T09:00:42;125.95;;;68.63;;
22060;SDS011;11194;48.092;-1.382;2022-12-10T09:03:08;126.35;;;69.15;;
22060;SDS011;11194;48.092;-1.382;2022-12-10T09:05:35;118.18;;;63.50;;
22060;SDS011;11194;48.092;-1.382;2022-12-10T09:08:01;110.53;;;60.53;;
22060;SDS011;11194;48.092;-1.382;2022-12-10T09:10:27;118.78;;;61.55;;
22060;SDS011;11194;48.092;-1.382;2022-12-10T09:12:53;105.20;;;55.65;;
22060;SDS011;11194;48.092;-1.382;2022-12-10T09:15:19;104.85;;;51.58;;
22060;SDS011;11194;48.092;-1.382;2022-12-10T09:17:45;105.80;;;52.88;;
22060;SDS011;11194;48.092;-1.382;2022-12-10T09:20:11;99.63;;;52.50;;
22060;SDS011;11194;48.092;-1.382;2022-12-10T09:22:38;90.55;;;49.78;;
22060;SDS011;11194;48.092;-1.382;2022-12-10T09:25:05;83.85;;;46.70;;
22060;SDS011;11194;48.092;-1.382;2022-12-10T09:27:31;79.57;;;45.25;;
22060;SDS011;11194;48.092;-1.382;2022-12-10T09:29:58;78.50;;;44.88;;
22060;SDS011;11194;48.092;-1.382;2022-12-10T09:32:24;76.72;;;45.03;;
22060;SDS011;11194;48.092;-1.382;2022-12-10T09:34:51;91.38;;;51.38;;
22060;SDS011;11194;48.092;-1.382;2022-12-10T09:37:17;85.35;;;48.50;;
22060;SDS011;11194;48.092;-1.382;2022-12-10T09:39:44;89.50;;;50.45;;
22060;SDS011;11194;48.092;-1.382;2022-12-10T09:44:48;83.80;;;48.03;;
22060;SDS011;11194;48.092;-1.382;2022-12-10T09:47:18;83.43;;;47.63;;
22060;SDS011;11194;48.092;-1.382;2022-12-10T09:52:12;82.57;;;51.08;;
22060;SDS011;11194;48.092;-1.382;2022-12-10T09:57:05;99.18;;;60.55;;
22060;SDS011;11194;48.092;-1.382;2022-12-10T09:59:40;82.80;;;56.70;;
22060;SDS011;11194;48.092;-1.382;2022-12-10T10:02:24;87.07;;;61.08;;
22060;SDS011;11194;48.092;-1.382;2022-12-10T10:07:42;86.30;;;64.65;;
22060;SDS011;11194;48.092;-1.382;2022-12-10T10:12:44;75.47;;;60.78;;
22060;SDS011;11194;48.092;-1.382;2022-12-10T10:15:15;64.38;;;50.00;;
22060;SDS011;11194;48.092;-1.382;2022-12-10T10:17:45;57.80;;;44.47;;
22060;SDS011;11194;48.092;-1.382;2022-12-10T10:20:15;53.80;;;35.35;;
22060;SDS011;11194;48.092;-1.382;2022-12-10T10:22:41;45.05;;;32.00;;
22060;SDS011;11194;48.092;-1.382;2022-12-10T10:25:12;42.38;;;30.33;;
22060;SDS011;11194;48.092;-1.382;2022-12-10T10:27:40;47.30;;;28.55;;
22060;SDS011;11194;48.092;-1.382;2022-12-10T10:30:06;43.63;;;29.30;;
22060;SDS011;11194;48.092;-1.382;2022-12-10T10:35:03;36.10;;;26.08;;
22060;SDS011;11194;48.092;-1.382;2022-12-10T10:37:50;35.83;;;25.48;;
22060;SDS011;11194;48.092;-1.382;2022-12-10T10:40:21;34.25;;;24.90;;
22060;SDS011;11194;48.092;-1.382;2022-12-10T10:42:47;36.58;;;24.10;;
22060;SDS011;11194;48.092;-1.382;2022-12-10T10:48:22;34.33;;;23.30;;
22060;SDS011;11194;48.092;-1.382;2022-12-10T10:50:47;33.25;;;23.52;;
22060;SDS011;11194;48.092;-1.382;2022-12-10T10:53:30;36.97;;;26.17;;
22060;SDS011;11194;48.092;-1.382;2022-12-10T10:56:13;34.65;;;24.67;;
22060;SDS011;11194;48.092;-1.382;2022-12-10T10:58:54;33.13;;;24.23;;
22060;SDS011;11194;48.092;-1.382;2022-12-10T11:01:22;32.97;;;23.80;;
22060;SDS011;11194;48.092;-1.382;2022-12-10T11:03:50;35.35;;;23.67;;
22060;SDS011;11194;48.092;-1.382;2022-12-10T11:06:19;28.48;;;22.00;;
22060;SDS011;11194;48.092;-1.382;2022-12-10T11:08:46;29.65;;;22.25;;
22060;SDS011;11194;48.092;-1.382;2022-12-10T11:11:17;27.52;;;20.60;;
22060;SDS011;11194;48.092;-1.382;2022-12-10T11:13:44;27.58;;;21.73;;
22060;SDS011;11194;48.092;-1.382;2022-12-10T11:16:23;24.83;;;18.95;;
22060;SDS011;11194;48.092;-1.382;2022-12-10T11:18:56;24.73;;;18.65;;
22060;SDS011;11194;48.092;-1.382;2022-12-10T11:21:27;23.60;;;18.52;;
22060;SDS011;11194;48.092;-1.382;2022-12-10T11:23:53;24.70;;;19.77;;
22060;SDS011;11194;48.092;-1.382;2022-12-10T11:29:11;23.25;;;17.85;;
22060;SDS011;11194;48.092;-1.382;2022-12-10T11:34:15;26.00;;;18.35;;
22060;SDS011;11194;48.092;-1.382;2022-12-10T11:42:00;26.05;;;18.58;;
22060;SDS011;11194;48.092;-1.382;2022-12-10T11:53:00;22.67;;;16.98;;
22060;SDS011;11194;48.092;-1.382;2022-12-10T11:55:35;18.67;;;13.45;;
22060;SDS011;11194;48.092;-1.382;2022-12-10T12:08:36;17.17;;;12.23;;
22060;SDS011;11194;48.092;-1.382;2022-12-10T12:11:21;16.75;;;12.43;;
22060;SDS011;11194;48.092;-1.382;2022-12-10T12:16:17;14.25;;;10.93;;
22060;SDS011;11194;48.092;-1.382;2022-12-10T12:21:14;14.38;;;11.18;;
22060;SDS011;11194;48.092;-1.382;2022-12-10T12:23:54;13.77;;;10.80;;
22060;SDS011;11194;48.092;-1.382;2022-12-10T12:26:28;18.52;;;10.77;;
22060;SDS011;11194;48.092;-1.382;2022-12-10T12:29:01;13.07;;;10.32;;
22060;SDS011;11194;48.092;-1.382;2022-12-10T12:31:34;18.10;;;11.05;;
22060;SDS011;11194;48.092;-1.382;2022-12-10T12:34:05;12.65;;;10.00;;
22060;SDS011;11194;48.092;-1.382;2022-12-10T12:36:37;13.27;;;10.52;;
22060;SDS011;11194;48.092;-1.382;2022-12-10T12:45:16;14.30;;;10.95;;
22060;SDS011;11194;48.092;-1.382;2022-12-10T12:47:16;14.30;;;11.30;;
22060;SDS011;11194;48.092;-1.382;2022-12-10T12:49:48;13.48;;;10.73;;
22060;SDS011;11194;48.092;-1.382;2022-12-10T12:55:00;14.93;;;10.57;;
22060;SDS011;11194;48.092;-1.382;2022-12-10T12:57:33;17.00;;;11.80;;
22060;SDS011;11194;48.092;-1.382;2022-12-10T13:00:22;16.95;;;11.60;;
22060;SDS011;11194;48.092;-1.382;2022-12-10T13:05:27;15.82;;;11.70;;
22060;SDS011;11194;48.092;-1.382;2022-12-10T13:10:56;14.27;;;11.10;;
22060;SDS011;11194;48.092;-1.382;2022-12-10T13:18:43;14.02;;;11.05;;
22060;SDS011;11194;48.092;-1.382;2022-12-10T13:21:17;12.43;;;10.13;;
22060;SDS011;11194;48.092;-1.382;2022-12-10T13:23:54;15.60;;;10.85;;
22060;SDS011;11194;48.092;-1.382;2022-12-10T13:26:30;14.23;;;10.68;;
22060;SDS011;11194;48.092;-1.382;2022-12-10T13:31:44;13.50;;;10.00;;
22060;SDS011;11194;48.092;-1.382;2022-12-10T13:34:21;11.55;;;9.25;;
22060;SDS011;11194;48.092;-1.382;2022-12-10T13:44:59;13.57;;;10.15;;
22060;SDS011;11194;48.092;-1.382;2022-12-10T13:47:27;11.93;;;9.55;;
22060;SDS011;11194;48.092;-1.382;2022-12-10T13:50:00;14.60;;;10.43;;
22060;SDS011;11194;48.092;-1.382;2022-12-10T14:00:08;11.38;;;8.60;;
22060;SDS011;11194;48.092;-1.382;2022-12-10T14:07:31;12.40;;;8.00;;
22060;SDS011;11194;48.092;-1.382;2022-12-10T14:09:58;12.73;;;8.10;;
22060;SDS011;11194;48.092;-1.382;2022-12-10T14:12:30;11.30;;;7.50;;
22060;SDS011;11194;48.092;-1.382;2022-12-10T14:15:02;10.80;;;8.30;;
22060;SDS011;11194;48.092;-1.382;2022-12-10T14:17:48;9.55;;;7.53;;
22060;SDS011;11194;48.092;-1.382;2022-12-10T14:20:22;11.90;;;8.57;;
22060;SDS011;11194;48.092;-1.382;2022-12-10T14:22:50;10.77;;;8.20;;
22060;SDS011;11194;48.092;-1.382;2022-12-10T14:25:18;10.13;;;7.95;;
22060;SDS011;11194;48.092;-1.382;2022-12-10T14:27:49;11.73;;;8.00;;
22060;SDS011;11194;48.092;-1.382;2022-12-10T14:30:17;10.73;;;8.63;;
22060;SDS011;11194;48.092;-1.382;2022-12-10T14:32:44;10.95;;;7.90;;
22060;SDS011;11194;48.092;-1.382;2022-12-10T14:35:16;10.85;;;8.07;;
22060;SDS011;11194;48.092;-1.382;2022-12-10T14:37:45;10.88;;;8.05;;
22060;SDS011;11194;48.092;-1.382;2022-12-10T14:40:25;10.18;;;7.68;;
22060;SDS011;11194;48.092;-1.382;2022-12-10T14:42:52;11.52;;;7.95;;
22060;SDS011;11194;48.092;-1.382;2022-12-10T14:45:21;11.90;;;8.05;;
22060;SDS011;11194;48.092;-1.382;2022-12-10T14:47:47;12.93;;;8.15;;
22060;SDS011;11194;48.092;-1.382;2022-12-10T14:50:14;12.10;;;8.13;;
22060;SDS011;11194;48.092;-1.382;2022-12-10T14:52:50;10.88;;;7.50;;
22060;SDS011;11194;48.092;-1.382;2022-12-10T14:55:19;9.32;;;7.25;;
22060;SDS011;11194;48.092;-1.382;2022-12-10T14:57:48;9.60;;;7.32;;
22060;SDS011;11194;48.092;-1.382;2022-12-10T15:00:19;9.60;;;6.55;;
22060;SDS011;11194;48.092;-1.382;2022-12-10T15:03:01;8.70;;;6.78;;
22060;SDS011;11194;48.092;-1.382;2022-12-10T15:05:33;9.32;;;7.13;;
22060;SDS011;11194;48.092;-1.382;2022-12-10T15:08:02;9.52;;;6.70;;
22060;SDS011;11194;48.092;-1.382;2022-12-10T15:10:33;10.10;;;7.30;;
22060;SDS011;11194;48.092;-1.382;2022-12-10T15:13:01;9.05;;;6.70;;
22060;SDS011;11194;48.092;-1.382;2022-12-10T15:15:30;9.77;;;7.00;;
22060;SDS011;11194;48.092;-1.382;2022-12-10T15:18:03;10.55;;;7.82;;
22060;SDS011;11194;48.092;-1.382;2022-12-10T15:20:39;11.20;;;7.70;;
22060;SDS011;11194;48.092;-1.382;2022-12-10T15:28:24;11.95;;;8.32;;
22060;SDS011;11194;48.092;-1.382;2022-12-10T15:30:51;13.88;;;10.02;;
22060;SDS011;11194;48.092;-1.382;2022-12-10T15:33:26;13.98;;;9.63;;
22060;SDS011;11194;48.092;-1.382;2022-12-10T15:35:54;14.02;;;9.40;;
22060;SDS011;11194;48.092;-1.382;2022-12-10T15:38:24;14.30;;;9.88;;
22060;SDS011;11194;48.092;-1.382;2022-12-10T15:40:56;13.60;;;10.15;;
22060;SDS011;11194;48.092;-1.382;2022-12-10T15:43:25;13.35;;;9.95;;
22060;SDS011;11194;48.092;-1.382;2022-12-10T15:45:55;15.52;;;10.63;;
22060;SDS011;11194;48.092;-1.382;2022-12-10T15:48:22;15.13;;;11.02;;
22060;SDS011;11194;48.092;-1.382;2022-12-10T15:50:51;15.40;;;10.90;;
22060;SDS011;11194;48.092;-1.382;2022-12-10T15:53:25;17.70;;;10.52;;
22060;SDS011;11194;48.092;-1.382;2022-12-10T15:55:53;15.88;;;10.68;;
22060;SDS011;11194;48.092;-1.382;2022-12-10T15:58:21;17.02;;;10.65;;
22060;SDS011;11194;48.092;-1.382;2022-12-10T16:00:48;17.42;;;11.40;;
22060;SDS011;11194;48.092;-1.382;2022-12-10T16:03:16;16.58;;;11.32;;
22060;SDS011;11194;48.092;-1.382;2022-12-10T16:05:46;13.68;;;10.70;;
22060;SDS011;11194;48.092;-1.382;2022-12-10T16:08:24;15.35;;;11.00;;
22060;SDS011;11194;48.092;-1.382;2022-12-10T16:10:56;15.55;;;10.38;;
22060;SDS011;11194;48.092;-1.382;2022-12-10T16:13:26;16.48;;;10.65;;
22060;SDS011;11194;48.092;-1.382;2022-12-10T16:15:55;18.45;;;11.40;;
22060;SDS011;11194;48.092;-1.382;2022-12-10T16:18:24;16.58;;;12.07;;
22060;SDS011;11194;48.092;-1.382;2022-12-10T16:20:52;16.02;;;10.95;;
22060;SDS011;11194;48.092;-1.382;2022-12-10T16:23:19;14.80;;;10.82;;
22060;SDS011;11194;48.092;-1.382;2022-12-10T16:25:47;16.88;;;11.32;;
22060;SDS011;11194;48.092;-1.382;2022-12-10T16:28:16;15.00;;;11.18;;
22060;SDS011;11194;48.092;-1.382;2022-12-10T16:33:11;18.70;;;12.65;;
22060;SDS011;11194;48.092;-1.382;2022-12-10T16:35:39;18.30;;;12.65;;
22060;SDS011;11194;48.092;-1.382;2022-12-10T16:38:07;17.00;;;11.73;;
22060;SDS011;11194;48.092;-1.382;2022-12-10T16:40:35;21.67;;;14.50;;
22060;SDS011;11194;48.092;-1.382;2022-12-10T16:43:09;18.40;;;12.88;;
22060;SDS011;11194;48.092;-1.382;2022-12-10T16:45:44;22.88;;;14.25;;
22060;SDS011;11194;48.092;-1.382;2022-12-10T16:48:27;21.80;;;14.02;;
22060;SDS011;11194;48.092;-1.382;2022-12-10T16:51:21;23.23;;;15.43;;
22060;SDS011;11194;48.092;-1.382;2022-12-10T16:53:56;23.80;;;16.55;;
22060;SDS011;11194;48.092;-1.382;2022-12-10T16:56:41;22.15;;;14.15;;
22060;SDS011;11194;48.092;-1.382;2022-12-10T16:59:35;35.40;;;25.50;;
22060;SDS011;11194;48.092;-1.382;2022-12-10T17:02:16;53.58;;;42.97;;
22060;SDS011;11194;48.092;-1.382;2022-12-10T17:04:46;34.97;;;24.95;;
22060;SDS011;11194;48.092;-1.382;2022-12-10T17:07:14;33.63;;;23.30;;
22060;SDS011;11194;48.092;-1.382;2022-12-10T17:09:45;41.63;;;28.77;;
22060;SDS011;11194;48.092;-1.382;2022-12-10T17:12:17;27.20;;;18.48;;
22060;SDS011;11194;48.092;-1.382;2022-12-10T17:14:48;29.80;;;19.88;;
22060;SDS011;11194;48.092;-1.382;2022-12-10T17:17:16;26.30;;;17.33;;
22060;SDS011;11194;48.092;-1.382;2022-12-10T17:19:47;30.10;;;19.65;;
22060;SDS011;11194;48.092;-1.382;2022-12-10T17:22:19;28.85;;;18.63;;
22060;SDS011;11194;48.092;-1.382;2022-12-10T17:24:47;30.35;;;18.48;;
22060;SDS011;11194;48.092;-1.382;2022-12-10T17:27:21;33.70;;;19.25;;
22060;SDS011;11194;48.092;-1.382;2022-12-10T17:29:48;26.80;;;17.70;;
22060;SDS011;11194;48.092;-1.382;2022-12-10T17:32:20;28.35;;;17.48;;
22060;SDS011;11194;48.092;-1.382;2022-12-10T17:34:53;22.83;;;14.50;;
22060;SDS011;11194;48.092;-1.382;2022-12-10T17:37:27;19.98;;;14.25;;
22060;SDS011;11194;48.092;-1.382;2022-12-10T17:40:09;18.85;;;13.77;;
22060;SDS011;11194;48.092;-1.382;2022-12-10T17:42:48;19.05;;;13.63;;
22060;SDS011;11194;48.092;-1.382;2022-12-10T17:45:20;21.52;;;14.13;;
22060;SDS011;11194;48.092;-1.382;2022-12-10T17:47:55;17.85;;;13.50;;
22060;SDS011;11194;48.092;-1.382;2022-12-10T17:50:30;22.85;;;14.30;;
22060;SDS011;11194;48.092;-1.382;2022-12-10T17:53:06;20.88;;;15.07;;
22060;SDS011;11194;48.092;-1.382;2022-12-10T17:55:41;25.13;;;15.43;;
22060;SDS011;11194;48.092;-1.382;2022-12-10T17:58:09;21.23;;;14.40;;
22060;SDS011;11194;48.092;-1.382;2022-12-10T18:00:37;24.73;;;17.02;;
22060;SDS011;11194;48.092;-1.382;2022-12-10T18:03:04;23.77;;;15.07;;
22060;SDS011;11194;48.092;-1.382;2022-12-10T18:05:30;22.85;;;14.68;;
22060;SDS011;11194;48.092;-1.382;2022-12-10T18:07:57;24.88;;;16.55;;
22060;SDS011;11194;48.092;-1.382;2022-12-10T18:10:24;25.75;;;16.02;;
22060;SDS011;11194;48.092;-1.382;2022-12-10T18:12:50;24.73;;;15.35;;
22060;SDS011;11194;48.092;-1.382;2022-12-10T18:15:20;20.67;;;14.25;;
22060;SDS011;11194;48.092;-1.382;2022-12-10T18:17:47;23.58;;;14.52;;
22060;SDS011;11194;48.092;-1.382;2022-12-10T18:20:24;22.02;;;14.88;;
22060;SDS011;11194;48.092;-1.382;2022-12-10T18:22:51;21.20;;;14.32;;
22060;SDS011;11194;48.092;-1.382;2022-12-10T18:25:17;23.40;;;15.65;;
22060;SDS011;11194;48.092;-1.382;2022-12-10T18:27:44;22.63;;;15.57;;
22060;SDS011;11194;48.092;-1.382;2022-12-10T18:30:18;21.88;;;15.23;;
22060;SDS011;11194;48.092;-1.382;2022-12-10T18:32:44;25.20;;;15.90;;
22060;SDS011;11194;48.092;-1.382;2022-12-10T18:35:10;23.70;;;15.60;;
22060;SDS011;11194;48.092;-1.382;2022-12-10T18:37:37;20.42;;;13.90;;
22060;SDS011;11194;48.092;-1.382;2022-12-10T18:40:04;20.55;;;14.75;;
22060;SDS011;11194;48.092;-1.382;2022-12-10T18:42:31;20.20;;;15.05;;
22060;SDS011;11194;48.092;-1.382;2022-12-10T18:44:57;23.10;;;15.82;;
22060;SDS011;11194;48.092;-1.382;2022-12-10T18:47:23;22.77;;;15.65;;
22060;SDS011;11194;48.092;-1.382;2022-12-10T18:49:49;21.88;;;15.50;;